createdAt,value
2019-01-19T00:00:02.672Z,100.00
2019-01-19T00:01:02.647Z,100.00
2019-01-19T00:02:03.179Z,100.00
2019-01-19T00:03:02.934Z,100.00
2019-01-19T00:04:03.110Z,100.00
2019-01-19T00:05:10.214Z,100.00
2019-01-19T00:06:03.889Z,100.00
2019-01-19T00:07:04.614Z,100.00
2019-01-19T00:08:04.743Z,100.00
2019-01-19T00:09:04.532Z,100.00
2019-01-19T00:10:04.773Z,100.00
2019-01-19T00:11:05.348Z,100.00
2019-01-19T00:12:05.150Z,100.00
2019-01-19T00:13:05.635Z,100.00
2019-01-19T00:14:05.921Z,100.00
2019-01-19T00:15:06.174Z,100.00
2019-01-19T00:16:06.240Z,100.00
2019-01-19T00:17:06.949Z,100.00
2019-01-19T00:18:07.216Z,100.00
2019-01-19T00:19:07.505Z,100.00
2019-01-19T00:20:07.799Z,100.00
2019-01-19T00:21:08.216Z,100.00
2019-01-19T00:22:08.418Z,100.00
2019-01-19T00:23:08.659Z,100.00
2019-01-19T00:24:09.028Z,100.00
2019-01-19T00:25:09.249Z,100.00
2019-01-19T00:26:09.734Z,100.00
2019-01-19T00:27:09.904Z,100.00
2019-01-19T00:28:10.136Z,100.00
2019-01-19T00:29:10.535Z,100.00
2019-01-19T00:30:11.139Z,100.00
2019-01-19T00:31:11.534Z,100.00
2019-01-19T00:32:11.570Z,100.00
2019-01-19T00:33:11.498Z,100.00
2019-01-19T00:34:11.915Z,100.00
2019-01-19T00:35:17.766Z,100.00
2019-01-19T00:36:12.438Z,100.00
2019-01-19T00:37:12.835Z,100.00
2019-01-19T00:38:12.933Z,100.00
2019-01-19T00:39:13.114Z,100.00
2019-01-19T00:40:13.362Z,100.00
2019-01-19T00:41:13.743Z,100.00
2019-01-19T00:42:13.824Z,100.00
2019-01-19T00:43:13.896Z,100.00
2019-01-19T00:44:13.933Z,100.00
2019-01-19T00:45:14.388Z,100.00
2019-01-19T00:46:14.314Z,100.00
2019-01-19T00:47:14.393Z,100.00
2019-01-19T00:48:14.483Z,100.00
2019-01-19T00:49:14.706Z,100.00
2019-01-19T00:50:14.865Z,100.00
2019-01-19T00:51:15.388Z,100.00
2019-01-19T00:52:15.762Z,100.00
2019-01-19T00:53:16.106Z,100.00
2019-01-19T00:54:16.306Z,100.00
2019-01-19T00:55:16.654Z,100.00
2019-01-19T00:56:16.729Z,100.00
2019-01-19T00:57:17.042Z,100.00
2019-01-19T00:58:17.100Z,100.00
2019-01-19T00:59:17.321Z,100.00
2019-01-19T01:00:17.878Z,100.00
2019-01-19T01:01:17.743Z,100.00
2019-01-19T01:02:18.440Z,100.00
2019-01-19T01:03:18.700Z,100.00
2019-01-19T01:04:18.763Z,100.00
2019-01-19T01:05:25.241Z,100.00
2019-01-19T01:06:19.592Z,100.00
2019-01-19T01:07:20.113Z,100.00
2019-01-19T01:08:20.313Z,100.00
2019-01-19T01:09:20.864Z,100.00
2019-01-19T01:10:20.947Z,100.00
2019-01-19T01:11:21.038Z,100.00
2019-01-19T01:12:21.797Z,100.00
2019-01-19T01:13:21.696Z,100.00
2019-01-19T01:14:21.762Z,100.00
2019-01-19T01:15:21.854Z,100.00
2019-01-19T01:16:22.130Z,100.00
2019-01-19T01:17:22.598Z,100.00
2019-01-19T01:18:22.681Z,100.00
2019-01-19T01:19:23.274Z,100.00
2019-01-19T01:20:23.631Z,100.00
2019-01-19T01:21:23.549Z,100.00
2019-01-19T01:22:23.752Z,100.00
2019-01-19T01:23:23.909Z,100.00
2019-01-19T01:24:24.233Z,100.00
2019-01-19T01:25:24.076Z,100.00
2019-01-19T01:26:24.173Z,100.00
2019-01-19T01:27:24.285Z,100.00
2019-01-19T01:28:24.568Z,100.00
2019-01-19T01:29:24.865Z,100.00
2019-01-19T01:30:25.161Z,100.00
2019-01-19T01:31:25.526Z,100.00
2019-01-19T01:32:25.597Z,100.00
2019-01-19T01:33:25.861Z,100.00
2019-01-19T01:34:26.324Z,100.00
2019-01-19T01:35:32.577Z,100.00
2019-01-19T01:36:27.169Z,100.00
2019-01-19T01:37:27.400Z,100.00
2019-01-19T01:38:27.377Z,100.00
2019-01-19T01:39:27.721Z,100.00
2019-01-19T01:40:28.011Z,100.00
2019-01-19T01:41:28.092Z,100.00
2019-01-19T01:42:28.468Z,100.00
2019-01-19T01:44:28.582Z,100.00
2019-01-19T01:45:29.030Z,100.00
2019-01-19T01:46:29.434Z,100.00
2019-01-19T01:47:29.792Z,100.00
2019-01-19T01:48:30.191Z,100.00
2019-01-19T01:49:30.432Z,100.00
2019-01-19T01:50:30.832Z,100.00
2019-01-19T01:51:31.088Z,100.00
2019-01-19T01:52:31.707Z,100.00
2019-01-19T01:53:31.307Z,100.00
2019-01-19T01:54:31.686Z,100.00
2019-01-19T01:55:31.977Z,100.00
2019-01-19T01:56:32.458Z,100.00
2019-01-19T01:57:32.769Z,100.00
2019-01-19T01:58:32.952Z,100.00
2019-01-19T01:59:32.831Z,100.00
2019-01-19T02:00:33.153Z,100.00
2019-01-19T02:01:33.359Z,100.00
2019-01-19T02:02:33.648Z,100.00
2019-01-19T02:03:33.883Z,100.00
2019-01-19T02:04:34.042Z,100.00
2019-01-19T02:05:40.202Z,100.00
2019-01-19T02:06:34.846Z,100.00
2019-01-19T02:07:35.185Z,100.00
2019-01-19T02:08:35.266Z,100.00
2019-01-19T02:09:35.693Z,100.00
2019-01-19T02:10:35.801Z,100.00
2019-01-19T02:11:35.876Z,100.00
2019-01-19T02:12:36.551Z,100.00
2019-01-19T02:13:36.397Z,100.00
2019-01-19T02:14:36.469Z,100.00
2019-01-19T02:16:36.824Z,100.00
2019-01-19T02:17:36.907Z,100.00
2019-01-19T02:18:37.412Z,100.00
2019-01-19T02:19:37.895Z,100.00
2019-01-19T02:20:38.034Z,100.00
2019-01-19T02:21:38.019Z,100.00
2019-01-19T02:22:38.634Z,100.00
2019-01-19T02:24:39.186Z,100.00
2019-01-19T02:25:39.401Z,100.00
2019-01-19T02:26:39.776Z,100.00
2019-01-19T02:27:39.757Z,100.00
2019-01-19T02:28:39.841Z,100.00
2019-01-19T02:29:40.439Z,100.00
2019-01-19T02:30:40.863Z,100.00
2019-01-19T02:31:41.281Z,100.00
2019-01-19T02:32:41.668Z,100.00
2019-01-19T02:33:41.873Z,100.00
2019-01-19T02:34:42.293Z,100.00
2019-01-19T02:35:48.470Z,100.00
2019-01-19T02:36:43.128Z,100.00
2019-01-19T02:37:43.431Z,100.00
2019-01-19T02:38:43.460Z,100.00
2019-01-19T02:39:43.428Z,100.00
2019-01-19T02:40:43.873Z,100.00
2019-01-19T02:41:44.169Z,100.00
2019-01-19T02:42:44.139Z,100.00
2019-01-19T02:43:44.454Z,100.00
2019-01-19T02:44:44.691Z,100.00
2019-01-19T02:45:44.868Z,100.00
2019-01-19T02:46:45.542Z,100.00
2019-01-19T02:47:45.627Z,100.00
2019-01-19T02:48:45.917Z,100.00
2019-01-19T02:49:47.579Z,100.00
2019-01-19T02:50:46.363Z,100.00
2019-01-19T02:51:46.481Z,100.00
2019-01-19T02:52:49.473Z,100.00
2019-01-19T02:53:47.070Z,100.00
2019-01-19T02:54:47.243Z,100.00
2019-01-19T02:55:47.647Z,100.00
2019-01-19T02:56:47.546Z,100.00
2019-01-19T02:57:47.950Z,100.00
2019-01-19T02:58:48.176Z,100.00
2019-01-19T02:59:48.415Z,100.00
2019-01-19T03:00:48.502Z,100.00
2019-01-19T03:01:48.439Z,100.00
2019-01-19T03:02:48.896Z,100.00
2019-01-19T03:03:48.824Z,100.00
2019-01-19T03:04:48.778Z,100.00
2019-01-19T03:05:55.984Z,100.00
2019-01-19T03:06:49.580Z,100.00
2019-01-19T03:07:49.964Z,100.00
2019-01-19T03:08:50.050Z,100.00
2019-01-19T03:09:50.434Z,100.00
2019-01-19T03:10:50.159Z,100.00
2019-01-19T03:11:50.296Z,100.00
2019-01-19T03:12:50.907Z,100.00
2019-01-19T03:13:51.021Z,100.00
2019-01-19T03:14:51.389Z,100.00
2019-01-19T03:15:51.734Z,100.00
2019-01-19T03:16:51.843Z,100.00
2019-01-19T03:17:52.484Z,100.00
2019-01-19T03:18:52.827Z,100.00
2019-01-19T03:19:52.903Z,100.00
2019-01-19T03:20:53.134Z,100.00
2019-01-19T03:21:53.244Z,100.00
2019-01-19T03:22:53.566Z,100.00
2019-01-19T03:23:53.803Z,100.00
2019-01-19T03:24:53.850Z,100.00
2019-01-19T03:25:54.081Z,100.00
2019-01-19T03:26:54.226Z,100.00
2019-01-19T03:27:54.412Z,100.00
2019-01-19T03:28:54.356Z,100.00
2019-01-19T03:29:54.811Z,100.00
2019-01-19T03:30:54.807Z,100.00
2019-01-19T03:31:55.191Z,100.00
2019-01-19T03:32:55.493Z,100.00
2019-01-19T03:33:55.884Z,100.00
2019-01-19T03:34:56.170Z,100.00
2019-01-19T03:36:04.137Z,100.00
2019-01-19T03:36:56.919Z,100.00
2019-01-19T03:37:57.227Z,100.00
2019-01-19T03:38:57.341Z,100.00
2019-01-19T03:39:57.770Z,100.00
2019-01-19T03:40:58.047Z,100.00
2019-01-19T03:41:58.448Z,100.00
2019-01-19T03:42:58.987Z,100.00
2019-01-19T03:43:58.904Z,100.00
2019-01-19T03:44:58.916Z,100.00
2019-01-19T03:45:59.216Z,100.00
2019-01-19T03:46:59.538Z,100.00
2019-01-19T03:47:59.941Z,100.00
2019-01-19T03:49:00.491Z,100.00
2019-01-19T03:50:01.080Z,100.00
2019-01-19T03:51:01.179Z,100.00
2019-01-19T03:52:01.353Z,100.00
2019-01-19T03:53:01.760Z,100.00
2019-01-19T03:54:01.687Z,100.00
2019-01-19T03:55:02.122Z,100.00
2019-01-19T03:56:02.458Z,100.00
2019-01-19T03:57:02.324Z,100.00
2019-01-19T03:58:02.869Z,100.00
2019-01-19T03:59:03.365Z,100.00
2019-01-19T04:00:03.707Z,100.00
2019-01-19T04:01:04.073Z,100.00
2019-01-19T04:02:04.066Z,100.00
2019-01-19T04:03:04.255Z,100.00
2019-01-19T04:04:04.658Z,100.00
2019-01-19T04:05:04.414Z,100.00
2019-01-19T04:06:12.428Z,100.00
2019-01-19T04:07:05.094Z,100.00
2019-01-19T04:08:04.834Z,100.00
2019-01-19T04:09:04.969Z,100.00
2019-01-19T04:10:05.341Z,100.00
2019-01-19T04:11:05.427Z,100.00
2019-01-19T04:12:05.782Z,100.00
2019-01-19T04:13:05.863Z,100.00
2019-01-19T04:14:06.085Z,100.00
2019-01-19T04:15:05.998Z,100.00
2019-01-19T04:16:06.226Z,100.00
2019-01-19T04:17:06.566Z,100.00
2019-01-19T04:18:06.735Z,100.00
2019-01-19T04:19:06.901Z,100.00
2019-01-19T04:20:06.983Z,100.00
2019-01-19T04:21:07.292Z,100.00
2019-01-19T04:22:07.321Z,100.00
2019-01-19T04:23:07.584Z,100.00
2019-01-19T04:24:08.088Z,100.00
2019-01-19T04:25:07.923Z,100.00
2019-01-19T04:26:08.205Z,100.00
2019-01-19T04:27:08.697Z,100.00
2019-01-19T04:28:08.949Z,100.00
2019-01-19T04:29:09.224Z,100.00
2019-01-19T04:30:09.512Z,100.00
2019-01-19T04:31:10.035Z,100.00
2019-01-19T04:32:10.611Z,100.00
2019-01-19T04:33:10.702Z,100.00
2019-01-19T04:34:10.822Z,100.00
2019-01-19T04:35:10.987Z,100.00
2019-01-19T04:36:11.090Z,100.00
2019-01-19T04:37:11.192Z,100.00
2019-01-19T04:38:11.372Z,100.00
2019-01-19T04:39:11.503Z,100.00
2019-01-19T04:40:11.709Z,100.00
2019-01-19T04:41:11.833Z,100.00
2019-01-19T04:42:11.980Z,100.00
2019-01-19T04:43:12.167Z,100.00
2019-01-19T04:44:12.314Z,100.00
2019-01-19T04:45:12.505Z,100.00
2019-01-19T04:46:12.624Z,100.00
2019-01-19T04:47:12.762Z,100.00
2019-01-19T04:48:12.843Z,100.00
2019-01-19T04:49:12.951Z,100.00
2019-01-19T04:50:13.067Z,100.00
2019-01-19T04:51:13.482Z,100.00
2019-01-19T04:52:13.665Z,100.00
2019-01-19T04:54:13.777Z,100.00
2019-01-19T04:55:13.958Z,100.00
2019-01-19T04:56:14.084Z,100.00
2019-01-19T04:57:14.183Z,100.00
2019-01-19T04:58:14.269Z,100.00
2019-01-19T04:59:14.392Z,100.00
2019-01-19T05:00:14.525Z,100.00
2019-01-19T05:01:14.528Z,100.00
2019-01-19T05:02:14.616Z,100.00
2019-01-19T05:03:14.656Z,100.00
2019-01-19T05:04:14.770Z,100.00
2019-01-19T05:05:14.877Z,100.00
2019-01-19T05:06:14.988Z,100.00
2019-01-19T05:07:15.090Z,100.00
2019-01-19T05:08:15.181Z,100.00
2019-01-19T05:09:15.242Z,100.00
2019-01-19T05:10:15.351Z,100.00
2019-01-19T05:11:15.465Z,100.00
2019-01-19T05:12:15.894Z,100.00
2019-01-19T05:13:15.869Z,100.00
2019-01-19T05:14:16.133Z,100.00
2019-01-19T05:15:16.393Z,100.00
2019-01-19T05:16:16.633Z,100.00
2019-01-19T05:17:16.877Z,100.00
2019-01-19T05:18:17.152Z,100.00
2019-01-19T05:19:17.500Z,100.00
2019-01-19T05:20:18.057Z,100.00
2019-01-19T05:21:17.813Z,100.00
2019-01-19T05:22:18.105Z,100.00
2019-01-19T05:23:18.603Z,100.00
2019-01-19T05:24:18.449Z,100.00
2019-01-19T05:25:18.701Z,100.00
2019-01-19T05:26:18.966Z,100.00
2019-01-19T05:27:19.222Z,100.00
2019-01-19T05:28:19.598Z,100.00
2019-01-19T05:29:19.838Z,100.00
2019-01-19T05:30:20.101Z,100.00
2019-01-19T05:31:20.426Z,100.00
2019-01-19T05:32:20.846Z,100.00
2019-01-19T05:33:21.081Z,100.00
2019-01-19T05:34:21.386Z,100.00
2019-01-19T05:35:21.711Z,100.00
2019-01-19T05:36:21.958Z,100.00
2019-01-19T05:37:22.216Z,100.00
2019-01-19T05:38:22.583Z,100.00
2019-01-19T05:39:22.819Z,100.00
2019-01-19T05:40:23.412Z,100.00
2019-01-19T05:41:23.155Z,100.00
2019-01-19T05:42:23.566Z,100.00
2019-01-19T05:43:23.808Z,100.00
2019-01-19T05:44:24.364Z,100.00
2019-01-19T05:45:24.690Z,100.00
2019-01-19T05:46:25.014Z,100.00
2019-01-19T05:47:25.542Z,100.00
2019-01-19T05:48:25.642Z,100.00
2019-01-19T05:49:25.735Z,100.00
2019-01-19T05:50:25.802Z,100.00
2019-01-19T05:51:25.918Z,100.00
2019-01-19T05:52:26.053Z,100.00
2019-01-19T05:53:26.188Z,100.00
2019-01-19T05:54:26.297Z,100.00
2019-01-19T05:55:26.410Z,100.00
2019-01-19T05:56:26.527Z,100.00
2019-01-19T05:57:26.621Z,100.00
2019-01-19T05:58:26.740Z,100.00
2019-01-19T05:59:26.842Z,100.00
2019-01-19T06:00:26.990Z,100.00
2019-01-19T06:01:28.193Z,100.00
2019-01-19T06:02:27.333Z,100.00
2019-01-19T06:03:27.484Z,100.00
2019-01-19T06:04:27.689Z,100.00
2019-01-19T06:05:27.795Z,100.00
2019-01-19T06:06:27.868Z,100.00
2019-01-19T06:07:27.975Z,100.00
2019-01-19T06:08:28.032Z,100.00
2019-01-19T06:09:28.092Z,100.00
2019-01-19T06:10:28.176Z,100.00
2019-01-19T06:11:28.209Z,100.00
2019-01-19T06:12:28.316Z,100.00
2019-01-19T06:13:28.371Z,100.00
2019-01-19T06:14:28.438Z,100.00
2019-01-19T06:15:28.493Z,100.00
2019-01-19T06:16:28.604Z,100.00
2019-01-19T06:17:28.789Z,100.00
2019-01-19T06:18:28.908Z,100.00
2019-01-19T06:19:29.017Z,100.00
2019-01-19T06:20:29.121Z,100.00
2019-01-19T06:21:29.227Z,100.00
2019-01-19T06:22:29.714Z,100.00
2019-01-19T06:23:29.760Z,100.00
2019-01-19T06:24:29.844Z,100.00
2019-01-19T06:25:29.884Z,100.00
2019-01-19T06:26:29.911Z,100.00
2019-01-19T06:27:29.960Z,100.00
2019-01-19T06:28:29.996Z,100.00
2019-01-19T06:29:30.082Z,100.00
2019-01-19T06:30:30.136Z,100.00
2019-01-19T06:31:30.180Z,100.00
2019-01-19T06:32:30.235Z,100.00
2019-01-19T06:33:30.300Z,100.00
2019-01-19T06:34:30.428Z,100.00
2019-01-19T06:35:30.769Z,100.00
2019-01-19T06:36:30.888Z,100.00
2019-01-19T06:37:30.970Z,100.00
2019-01-19T06:38:31.045Z,100.00
2019-01-19T06:39:31.070Z,100.00
2019-01-19T06:40:31.050Z,100.00
2019-01-19T06:41:31.444Z,100.00
2019-01-19T06:42:32.029Z,100.00
2019-01-19T06:43:31.775Z,100.00
2019-01-19T06:44:32.175Z,100.00
2019-01-19T06:45:32.557Z,100.00
2019-01-19T06:46:32.806Z,100.00
2019-01-19T06:47:33.057Z,100.00
2019-01-19T06:48:33.353Z,100.00
2019-01-19T06:49:33.923Z,100.00
2019-01-19T06:50:33.964Z,100.00
2019-01-19T06:51:34.035Z,100.00
2019-01-19T06:52:34.216Z,100.00
2019-01-19T06:53:34.035Z,100.00
2019-01-19T06:54:34.420Z,100.00
2019-01-19T06:55:34.874Z,100.00
2019-01-19T06:56:34.663Z,100.00
2019-01-19T06:57:35.080Z,100.00
2019-01-19T06:58:35.315Z,100.00
2019-01-19T06:59:35.637Z,100.00
2019-01-19T07:00:35.920Z,100.00
2019-01-19T07:01:36.163Z,100.00
2019-01-19T07:02:36.424Z,100.00
2019-01-19T07:03:36.745Z,100.00
2019-01-19T07:04:36.983Z,100.00
2019-01-19T07:05:37.254Z,100.00
2019-01-19T07:06:37.487Z,100.00
2019-01-19T07:07:37.795Z,100.00
2019-01-19T07:08:38.161Z,100.00
2019-01-19T07:09:38.664Z,100.00
2019-01-19T07:10:39.174Z,100.00
2019-01-19T07:11:39.036Z,100.00
2019-01-19T07:12:39.363Z,100.00
2019-01-19T07:13:39.600Z,100.00
2019-01-19T07:14:39.881Z,100.00
2019-01-19T07:15:40.494Z,100.00
2019-01-19T07:16:40.469Z,100.00
2019-01-19T07:17:40.551Z,100.00
2019-01-19T07:18:40.658Z,100.00
2019-01-19T07:19:40.725Z,100.00
2019-01-19T07:20:40.823Z,100.00
2019-01-19T07:21:40.896Z,100.00
2019-01-19T07:22:41.017Z,100.00
2019-01-19T07:23:41.107Z,100.00
2019-01-19T07:24:41.249Z,100.00
2019-01-19T07:25:41.347Z,100.00
2019-01-19T07:26:41.435Z,100.00
2019-01-19T07:27:41.548Z,100.00
2019-01-19T07:28:41.652Z,100.00
2019-01-19T07:29:41.770Z,100.00
2019-01-19T07:30:41.936Z,100.00
2019-01-19T07:31:42.023Z,100.00
2019-01-19T07:32:42.136Z,100.00
2019-01-19T07:33:42.489Z,100.00
2019-01-19T07:34:42.651Z,100.00
2019-01-19T07:35:42.790Z,100.00
2019-01-19T07:36:42.953Z,100.00
2019-01-19T07:37:43.151Z,100.00
2019-01-19T07:38:43.267Z,100.00
2019-01-19T07:39:43.307Z,100.00
2019-01-19T07:40:43.391Z,100.00
2019-01-19T07:41:43.479Z,100.00
2019-01-19T07:42:43.589Z,100.00
2019-01-19T07:43:44.035Z,100.00
2019-01-19T07:44:44.136Z,100.00
2019-01-19T07:45:44.240Z,100.00
2019-01-19T07:46:44.330Z,100.00
2019-01-19T07:47:44.587Z,100.00
2019-01-19T07:48:44.656Z,100.00
2019-01-19T07:49:44.752Z,100.00
2019-01-19T07:50:44.980Z,100.00
2019-01-19T07:51:45.046Z,100.00
2019-01-19T07:52:45.187Z,100.00
2019-01-19T07:53:45.320Z,100.00
2019-01-19T07:54:45.620Z,100.00
2019-01-19T07:55:45.724Z,100.00
2019-01-19T07:56:45.851Z,100.00
2019-01-19T07:57:45.918Z,100.00
2019-01-19T07:58:46.019Z,100.00
2019-01-19T07:59:46.023Z,100.00
2019-01-19T08:00:46.285Z,100.00
2019-01-19T08:01:46.784Z,100.00
2019-01-19T08:02:46.687Z,100.00
2019-01-19T08:03:47.112Z,100.00
2019-01-19T08:04:47.433Z,100.00
2019-01-19T08:05:47.702Z,100.00
2019-01-19T08:07:47.982Z,100.00
2019-01-19T08:09:48.304Z,100.00
2019-01-19T08:10:48.554Z,100.00
2019-01-19T08:11:48.858Z,100.00
2019-01-19T08:12:49.192Z,100.00
2019-01-19T08:13:49.620Z,100.00
2019-01-19T08:14:49.902Z,100.00
2019-01-19T08:15:50.559Z,100.00
2019-01-19T08:16:50.332Z,100.00
2019-01-19T08:17:50.880Z,100.00
2019-01-19T08:18:50.988Z,100.00
2019-01-19T08:19:50.725Z,100.00
2019-01-19T08:20:51.105Z,100.00
2019-01-19T08:21:51.536Z,100.00
2019-01-19T08:22:51.784Z,100.00
2019-01-19T08:23:52.180Z,100.00
2019-01-19T08:24:52.609Z,100.00
2019-01-19T08:25:52.826Z,100.00
2019-01-19T08:26:53.059Z,100.00
2019-01-19T08:27:53.289Z,100.00
2019-01-19T08:28:54.031Z,100.00
2019-01-19T08:29:53.859Z,100.00
2019-01-19T08:30:54.226Z,100.00
2019-01-19T08:31:54.862Z,100.00
2019-01-19T08:32:54.671Z,100.00
2019-01-19T08:33:55.829Z,100.00
2019-01-19T08:34:55.395Z,100.00
2019-01-19T08:35:56.036Z,100.00
2019-01-19T08:36:56.132Z,100.00
2019-01-19T08:37:56.236Z,100.00
2019-01-19T08:38:56.401Z,100.00
2019-01-19T08:39:56.475Z,100.00
2019-01-19T08:41:56.618Z,100.00
2019-01-19T08:42:56.688Z,100.00
2019-01-19T08:43:56.999Z,100.00
2019-01-19T08:44:57.303Z,100.00
2019-01-19T08:45:57.455Z,100.00
2019-01-19T08:46:57.589Z,100.00
2019-01-19T08:47:57.690Z,100.00
2019-01-19T08:48:57.782Z,100.00
2019-01-19T08:49:57.891Z,100.00
2019-01-19T08:50:57.998Z,100.00
2019-01-19T08:51:58.132Z,100.00
2019-01-19T08:53:58.199Z,100.00
2019-01-19T08:54:58.236Z,100.00
2019-01-19T08:55:58.254Z,100.00
2019-01-19T08:56:58.309Z,100.00
2019-01-19T08:57:58.327Z,100.00
2019-01-19T08:58:58.419Z,100.00
2019-01-19T08:59:58.471Z,100.00
2019-01-19T09:00:58.542Z,100.00
2019-01-19T09:01:58.608Z,100.00
2019-01-19T09:02:58.718Z,100.00
2019-01-19T09:03:58.761Z,100.00
2019-01-19T09:04:58.851Z,100.00
2019-01-19T09:05:58.975Z,100.00
2019-01-19T09:06:59.210Z,100.00
2019-01-19T09:07:59.308Z,100.00
2019-01-19T09:08:59.370Z,100.00
2019-01-19T09:09:59.413Z,100.00
2019-01-19T09:10:59.494Z,100.00
2019-01-19T09:11:59.638Z,100.00
2019-01-19T09:12:59.746Z,100.00
2019-01-19T09:13:59.849Z,100.00
2019-01-19T09:14:59.896Z,100.00
2019-01-19T09:15:59.951Z,100.00
2019-01-19T09:17:00.410Z,100.00
2019-01-19T09:18:00.500Z,100.00
2019-01-19T09:19:00.610Z,100.00
2019-01-19T09:20:00.686Z,100.00
2019-01-19T09:21:00.852Z,100.00
2019-01-19T09:22:00.985Z,100.00
2019-01-19T09:23:01.053Z,100.00
2019-01-19T09:24:01.358Z,100.00
2019-01-19T09:25:01.580Z,100.00
2019-01-19T09:26:01.671Z,100.00
2019-01-19T09:27:01.827Z,100.00
2019-01-19T09:28:01.942Z,100.00
2019-01-19T09:29:01.980Z,100.00
2019-01-19T09:30:02.081Z,100.00
2019-01-19T09:31:02.504Z,100.00
2019-01-19T09:32:02.567Z,100.00
2019-01-19T09:33:02.560Z,100.00
2019-01-19T09:34:03.110Z,100.00
2019-01-19T09:35:02.977Z,100.00
2019-01-19T09:36:03.582Z,100.00
2019-01-19T09:37:03.685Z,100.00
2019-01-19T09:38:03.823Z,100.00
2019-01-19T09:39:03.898Z,100.00
2019-01-19T09:40:04.004Z,100.00
2019-01-19T09:41:04.273Z,100.00
2019-01-19T09:42:04.117Z,100.00
2019-01-19T09:43:04.747Z,100.00
2019-01-19T09:44:04.495Z,100.00
2019-01-19T09:45:04.810Z,100.00
2019-01-19T09:46:05.045Z,100.00
2019-01-19T09:47:05.447Z,100.00
2019-01-19T09:48:05.744Z,100.00
2019-01-19T09:49:06.161Z,100.00
2019-01-19T09:50:06.402Z,99.07
2019-01-19T09:51:06.856Z,97.46
2019-01-19T09:52:07.089Z,97.32
2019-01-19T09:53:07.365Z,95.65
2019-01-19T09:54:07.897Z,95.54
2019-01-19T09:55:07.760Z,94.57
2019-01-19T09:56:08.202Z,94.82
2019-01-19T09:57:08.695Z,94.68
2019-01-19T09:58:09.084Z,96.01
2019-01-19T09:59:09.461Z,95.79
2019-01-19T10:00:09.779Z,94.52
2019-01-19T10:01:10.249Z,94.33
2019-01-19T10:02:10.869Z,95.52
2019-01-19T10:03:10.990Z,97.26
2019-01-19T10:04:11.132Z,97.66
2019-01-19T10:05:11.245Z,98.61
2019-01-19T10:06:11.563Z,99.03
2019-01-19T10:07:11.675Z,97.70
2019-01-19T10:08:11.779Z,94.91
2019-01-19T10:09:11.889Z,94.45
2019-01-19T10:10:11.995Z,93.39
2019-01-19T10:11:12.107Z,91.54
2019-01-19T10:12:12.214Z,91.50
2019-01-19T10:13:12.362Z,89.50
2019-01-19T10:14:12.498Z,87.02
2019-01-19T10:15:12.653Z,88.02
2019-01-19T10:16:12.650Z,90.47
2019-01-19T10:17:12.755Z,92.42
2019-01-19T10:18:12.867Z,94.00
2019-01-19T10:19:12.992Z,95.14
2019-01-19T10:20:13.071Z,94.32
2019-01-19T10:21:13.202Z,93.65
2019-01-19T10:22:13.262Z,93.69
2019-01-19T10:23:13.371Z,93.56
2019-01-19T10:24:13.424Z,92.76
2019-01-19T10:25:13.541Z,92.96
2019-01-19T10:26:13.648Z,92.37
2019-01-19T10:27:13.766Z,95.19
2019-01-19T10:28:13.816Z,95.69
2019-01-19T10:29:13.881Z,95.76
2019-01-19T10:30:13.999Z,95.26
2019-01-19T10:31:14.072Z,95.23
2019-01-19T10:32:14.179Z,97.21
2019-01-19T10:33:14.288Z,98.35
2019-01-19T10:34:14.363Z,98.04
2019-01-19T10:35:14.511Z,98.09
2019-01-19T10:36:14.602Z,97.46
2019-01-19T10:37:14.624Z,97.84
2019-01-19T10:38:14.700Z,95.74
2019-01-19T10:39:14.770Z,95.06
2019-01-19T10:40:14.858Z,93.22
2019-01-19T10:41:14.930Z,93.52
2019-01-19T10:42:14.980Z,92.73
2019-01-19T10:43:15.031Z,91.21
2019-01-19T10:44:15.098Z,89.17
2019-01-19T10:45:15.161Z,89.31
2019-01-19T10:46:15.693Z,88.81
2019-01-19T10:47:15.780Z,89.08
2019-01-19T10:48:15.928Z,87.56
2019-01-19T10:49:15.934Z,84.81
2019-01-19T10:50:16.031Z,84.48
2019-01-19T10:51:16.046Z,85.17
2019-01-19T10:52:16.079Z,86.21
2019-01-19T10:53:16.410Z,86.30
2019-01-19T10:54:16.883Z,88.55
2019-01-19T10:55:16.645Z,89.33
2019-01-19T10:56:16.842Z,90.88
2019-01-19T10:57:17.135Z,92.41
2019-01-19T10:58:17.359Z,93.44
2019-01-19T10:59:17.839Z,93.50
2019-01-19T11:00:18.382Z,91.47
2019-01-19T11:01:18.726Z,89.67
2019-01-19T11:02:18.985Z,86.99
2019-01-19T11:03:18.760Z,85.05
2019-01-19T11:04:19.079Z,83.59
2019-01-19T11:05:19.551Z,81.65
2019-01-19T11:06:19.851Z,82.38
2019-01-19T11:07:20.158Z,81.99
2019-01-19T11:08:20.469Z,80.61
2019-01-19T11:09:20.719Z,81.80
2019-01-19T11:10:21.104Z,79.82
2019-01-19T11:11:21.555Z,79.06
2019-01-19T11:12:21.363Z,80.03
2019-01-19T11:13:21.824Z,80.89
2019-01-19T11:14:22.107Z,79.95
2019-01-19T11:15:22.358Z,81.44
2019-01-19T11:16:22.756Z,80.65
2019-01-19T11:17:23.027Z,81.41
2019-01-19T11:18:23.459Z,81.75
2019-01-19T11:19:26.991Z,81.81
2019-01-19T11:20:23.756Z,80.88
2019-01-19T11:21:24.304Z,80.39
2019-01-19T11:22:24.550Z,79.79
2019-01-19T11:23:24.801Z,78.83
2019-01-19T11:24:25.138Z,78.47
2019-01-19T11:25:25.700Z,79.02
2019-01-19T11:26:25.848Z,81.96
2019-01-19T11:27:25.949Z,83.96
2019-01-19T11:28:26.062Z,83.97
2019-01-19T11:29:26.147Z,82.64
2019-01-19T11:30:26.257Z,83.39
2019-01-19T11:31:26.488Z,82.28
2019-01-19T11:32:26.585Z,80.70
2019-01-19T11:33:26.696Z,79.37
2019-01-19T11:34:26.812Z,77.42
2019-01-19T11:35:26.932Z,77.00
2019-01-19T11:36:27.060Z,75.45
2019-01-19T11:37:27.170Z,75.09
2019-01-19T11:38:27.272Z,76.98
2019-01-19T11:39:27.386Z,78.44
2019-01-19T11:40:27.538Z,79.09
2019-01-19T11:41:27.952Z,80.17
2019-01-19T11:42:28.052Z,80.09
2019-01-19T11:43:28.164Z,81.28
2019-01-19T11:44:28.277Z,84.25
2019-01-19T11:45:28.316Z,84.68
2019-01-19T11:46:28.390Z,86.10
2019-01-19T11:47:28.456Z,86.55
2019-01-19T11:48:28.513Z,85.65
2019-01-19T11:49:28.580Z,85.68
2019-01-19T11:50:28.720Z,85.32
2019-01-19T11:51:28.790Z,84.95
2019-01-19T11:52:28.908Z,84.65
2019-01-19T11:53:28.976Z,83.97
2019-01-19T11:54:29.037Z,83.75
2019-01-19T11:55:29.091Z,83.98
2019-01-19T11:56:29.272Z,83.63
2019-01-19T11:57:29.365Z,83.05
2019-01-19T11:58:29.395Z,81.85
2019-01-19T11:59:29.470Z,83.18
2019-01-19T12:00:29.642Z,83.62
2019-01-19T12:01:29.597Z,83.86
2019-01-19T12:02:36.787Z,83.69
2019-01-19T12:03:29.732Z,84.89
2019-01-19T12:04:29.795Z,83.73
2019-01-19T12:05:29.852Z,84.92
2019-01-19T12:06:29.917Z,84.39
2019-01-19T12:07:29.949Z,83.44
2019-01-19T12:08:29.980Z,82.93
2019-01-19T12:09:30.064Z,82.23
2019-01-19T12:10:30.152Z,82.73
2019-01-19T12:11:30.208Z,83.30
2019-01-19T12:12:30.265Z,83.52
2019-01-19T12:13:30.305Z,84.41
2019-01-19T12:14:30.349Z,84.53
2019-01-19T12:15:30.423Z,83.57
2019-01-19T12:16:30.538Z,82.73
2019-01-19T12:17:30.643Z,82.11
2019-01-19T12:18:30.733Z,82.42
2019-01-19T12:19:30.826Z,81.98
2019-01-19T12:20:30.873Z,82.11
2019-01-19T12:21:31.198Z,82.17
2019-01-19T12:22:31.197Z,81.31
2019-01-19T12:23:31.414Z,82.58
2019-01-19T12:24:31.415Z,81.53
2019-01-19T12:25:31.613Z,81.76
2019-01-19T12:26:31.743Z,81.65
2019-01-19T12:27:31.822Z,80.81
2019-01-19T12:28:31.556Z,79.10
2019-01-19T12:29:31.949Z,79.55
2019-01-19T12:30:32.320Z,76.34
2019-01-19T12:31:32.729Z,77.89
2019-01-19T12:32:33.030Z,77.09
2019-01-19T12:33:33.318Z,76.25
2019-01-19T12:34:33.806Z,77.41
2019-01-19T12:35:34.056Z,76.90
2019-01-19T12:36:34.330Z,78.13
2019-01-19T12:37:34.724Z,78.60
2019-01-19T12:38:35.075Z,78.49
2019-01-19T12:39:35.565Z,78.12
2019-01-19T12:40:35.825Z,78.70
2019-01-19T12:41:36.089Z,77.87
2019-01-19T12:42:36.359Z,75.02
2019-01-19T12:43:36.834Z,74.00